createdAt,value
2023-05-19T00:00:48.193Z,9.97
2023-05-19T00:03:17.780Z,9.96
2023-05-19T00:05:46.181Z,9.90
2023-05-19T00:08:16.791Z,9.88
2023-05-19T00:10:43.898Z,9.83
2023-05-19T00:13:10.676Z,9.90
2023-05-19T00:15:37.628Z,9.82
2023-05-19T00:18:04.257Z,9.87
2023-05-19T00:20:30.854Z,9.77
2023-05-19T00:22:57.417Z,9.69
2023-05-19T00:25:24.129Z,9.76
2023-05-19T00:27:50.628Z,9.71
2023-05-19T00:30:17.201Z,9.69
2023-05-19T00:32:43.927Z,9.73
2023-05-19T00:35:11.486Z,9.67
2023-05-19T00:37:37.951Z,9.73
2023-05-19T00:40:06.242Z,9.66
2023-05-19T00:42:32.827Z,9.68
2023-05-19T00:44:59.917Z,9.64
2023-05-19T00:47:26.460Z,9.63
2023-05-19T00:49:53.024Z,9.61
2023-05-19T00:52:19.678Z,9.64
2023-05-19T00:54:46.489Z,9.61
2023-05-19T00:57:14.749Z,9.64
2023-05-19T00:59:41.310Z,9.53
2023-05-19T01:02:08.131Z,9.56
2023-05-19T01:04:37.000Z,9.57
2023-05-19T01:07:03.819Z,9.50
2023-05-19T01:09:32.288Z,9.39
2023-05-19T01:11:59.815Z,9.45
2023-05-19T01:14:27.043Z,9.41
2023-05-19T01:17:20.736Z,9.34
2023-05-19T01:20:06.605Z,9.33
2023-05-19T01:22:48.206Z,9.42
2023-05-19T01:25:48.710Z,9.28
2023-05-19T01:28:30.212Z,9.25
2023-05-19T01:30:59.699Z,9.31
2023-05-19T01:33:28.633Z,9.23
2023-05-19T01:35:55.917Z,9.27
2023-05-19T01:38:24.616Z,9.19
2023-05-19T01:40:52.401Z,9.19
2023-05-19T01:43:22.139Z,9.18
2023-05-19T01:45:49.157Z,9.05
2023-05-19T01:48:16.294Z,9.01
2023-05-19T01:50:43.409Z,9.11
2023-05-19T01:53:10.631Z,9.15
2023-05-19T01:55:51.343Z,8.91
2023-05-19T01:58:45.940Z,8.97
2023-05-19T02:01:42.785Z,8.98
2023-05-19T02:04:15.201Z,8.94
2023-05-19T02:06:54.493Z,8.94
2023-05-19T02:09:32.950Z,8.94
2023-05-19T02:12:14.276Z,8.89
2023-05-19T02:15:00.225Z,8.77
2023-05-19T02:17:33.156Z,8.87
2023-05-19T02:20:00.138Z,8.86
2023-05-19T02:22:26.658Z,8.85
2023-05-19T02:24:53.169Z,8.77
2023-05-19T02:27:19.711Z,8.73
2023-05-19T02:29:46.156Z,8.84
2023-05-19T02:32:13.244Z,8.79
2023-05-19T02:34:40.197Z,8.80
2023-05-19T02:37:07.834Z,8.72
2023-05-19T02:39:35.427Z,8.76
2023-05-19T02:42:01.949Z,8.74
2023-05-19T02:44:28.450Z,8.81
2023-05-19T02:46:55.081Z,8.73
2023-05-19T02:49:21.673Z,8.72
2023-05-19T02:51:48.188Z,8.68
2023-05-19T02:54:14.808Z,8.75
2023-05-19T02:56:41.395Z,8.71
2023-05-19T02:59:07.891Z,8.65
2023-05-19T03:01:34.537Z,8.68
2023-05-19T03:04:01.291Z,8.67
2023-05-19T03:06:28.265Z,8.65
2023-05-19T03:08:54.858Z,8.63
2023-05-19T03:11:23.211Z,8.59
2023-05-19T03:13:49.717Z,8.54
2023-05-19T03:16:16.215Z,8.55
2023-05-19T03:18:43.123Z,8.60
2023-05-19T03:21:09.658Z,8.64
2023-05-19T03:23:36.353Z,8.52
2023-05-19T03:26:04.232Z,8.58
2023-05-19T03:28:30.959Z,8.49
2023-05-19T03:30:57.612Z,8.44
2023-05-19T03:33:24.290Z,8.45
2023-05-19T03:35:50.937Z,8.48
2023-05-19T03:38:17.478Z,8.44
2023-05-19T03:40:45.050Z,8.45
2023-05-19T03:43:11.571Z,8.46
2023-05-19T03:45:38.087Z,8.43
2023-05-19T03:48:05.057Z,8.50
2023-05-19T03:50:31.979Z,8.48
2023-05-19T03:52:58.880Z,8.47
2023-05-19T03:55:25.807Z,8.43
2023-05-19T03:57:55.204Z,8.44
2023-05-19T04:00:21.841Z,8.43
2023-05-19T04:02:48.460Z,8.45
2023-05-19T04:05:15.157Z,8.46
2023-05-19T04:07:41.736Z,8.48
2023-05-19T04:10:08.568Z,8.44
2023-05-19T04:12:35.011Z,8.55
2023-05-19T04:15:01.690Z,8.54
2023-05-19T04:17:28.419Z,8.55
2023-05-19T04:19:55.609Z,8.51
2023-05-19T04:22:22.621Z,8.51
2023-05-19T04:24:50.536Z,8.49
2023-05-19T04:27:18.312Z,8.51
2023-05-19T04:29:46.166Z,8.37
2023-05-19T04:32:17.530Z,8.43
2023-05-19T04:34:46.144Z,8.59
2023-05-19T04:37:14.152Z,8.50
2023-05-19T04:39:43.437Z,8.55
2023-05-19T04:42:11.393Z,8.54
2023-05-19T04:44:40.258Z,8.61
2023-05-19T04:47:08.924Z,8.60
2023-05-19T04:49:39.045Z,8.61
2023-05-19T04:52:12.548Z,8.62
2023-05-19T04:54:40.104Z,8.57
2023-05-19T04:57:06.798Z,8.65
2023-05-19T04:59:33.586Z,8.72
2023-05-19T05:02:00.430Z,8.78
2023-05-19T05:04:27.046Z,8.81
2023-05-19T05:06:53.495Z,8.84
2023-05-19T05:09:20.090Z,8.84
2023-05-19T05:11:47.225Z,8.81
2023-05-19T05:14:13.971Z,8.90
2023-05-19T05:16:40.911Z,8.92
2023-05-19T05:19:07.680Z,8.97
2023-05-19T05:21:34.754Z,9.03
2023-05-19T05:24:01.503Z,9.08
2023-05-19T05:26:31.557Z,9.09
2023-05-19T05:28:58.068Z,9.17
2023-05-19T05:31:24.513Z,9.21
2023-05-19T05:33:51.108Z,9.23
2023-05-19T05:36:17.737Z,9.26
2023-05-19T05:38:44.629Z,9.28
2023-05-19T05:41:11.322Z,9.42
2023-05-19T05:43:37.842Z,9.45
2023-05-19T05:46:04.382Z,9.49
2023-05-19T05:48:31.109Z,9.48
2023-05-19T05:50:59.220Z,9.57
2023-05-19T05:53:27.924Z,9.67
2023-05-19T05:55:54.923Z,9.82
2023-05-19T05:58:22.235Z,9.79
2023-05-19T06:00:49.373Z,9.88
2023-05-19T06:03:16.951Z,9.99
2023-05-19T06:05:43.728Z,10.14
2023-05-19T06:08:10.334Z,10.18
2023-05-19T06:10:39.023Z,10.24
2023-05-19T06:13:05.595Z,10.31
2023-05-19T06:15:32.115Z,10.50
2023-05-19T06:17:59.253Z,10.62
2023-05-19T06:20:26.305Z,10.87
2023-05-19T06:22:52.837Z,10.96
2023-05-19T06:25:20.539Z,11.22
2023-05-19T06:27:47.143Z,11.36
2023-05-19T06:30:13.918Z,11.74
2023-05-19T06:32:40.615Z,12.16
2023-05-19T06:35:07.529Z,12.34
2023-05-19T06:37:34.006Z,12.52
2023-05-19T06:40:00.876Z,12.95
2023-05-19T06:42:27.334Z,13.16
2023-05-19T06:44:53.819Z,13.59
2023-05-19T06:47:20.273Z,14.00
2023-05-19T06:49:50.688Z,14.32
2023-05-19T06:52:17.421Z,14.77
2023-05-19T06:54:43.891Z,14.80
2023-05-19T06:57:10.500Z,14.80
2023-05-19T06:59:37.652Z,15.64
2023-05-19T07:02:04.795Z,15.85
2023-05-19T07:04:31.416Z,16.08
2023-05-19T07:06:57.876Z,15.90
2023-05-19T07:09:24.444Z,16.17
2023-05-19T07:11:51.189Z,16.31
2023-05-19T07:14:17.707Z,16.33
2023-05-19T07:16:44.611Z,16.61
2023-05-19T07:19:11.244Z,16.27
2023-05-19T07:21:37.882Z,16.57
2023-05-19T07:24:04.586Z,16.17
2023-05-19T07:26:31.921Z,16.12
2023-05-19T07:28:58.480Z,16.33
2023-05-19T07:31:25.038Z,17.02
2023-05-19T07:33:54.281Z,17.01
2023-05-19T07:36:21.452Z,16.60
2023-05-19T07:38:48.165Z,15.83
2023-05-19T07:41:15.089Z,16.14
2023-05-19T07:43:41.659Z,16.30
2023-05-19T07:46:08.486Z,16.21
2023-05-19T07:48:34.991Z,16.49
2023-05-19T07:51:02.277Z,17.31
2023-05-19T07:53:29.139Z,18.01
2023-05-19T07:55:58.373Z,17.85
2023-05-19T07:58:25.397Z,18.17
2023-05-19T08:00:53.331Z,18.51
2023-05-19T08:03:20.968Z,18.43
2023-05-19T08:05:47.923Z,19.18
2023-05-19T08:08:16.679Z,18.80
2023-05-19T08:10:43.560Z,19.25
2023-05-19T08:13:10.105Z,19.07
2023-05-19T08:15:36.928Z,19.46
2023-05-19T08:18:05.275Z,19.05
2023-05-19T08:20:32.879Z,19.94
2023-05-19T08:22:59.620Z,20.34
2023-05-19T08:25:26.140Z,20.67
2023-05-19T08:27:52.619Z,20.91
2023-05-19T08:30:19.121Z,20.67
2023-05-19T08:32:45.612Z,20.16
2023-05-19T08:35:12.206Z,19.87
2023-05-19T08:37:38.765Z,20.40
2023-05-19T08:40:06.338Z,20.99
2023-05-19T08:42:33.881Z,21.38
2023-05-19T08:45:01.742Z,20.97
2023-05-19T08:47:28.795Z,20.32
2023-05-19T08:50:04.925Z,19.54
2023-05-19T08:52:57.849Z,19.21
2023-05-19T08:55:33.875Z,18.55
2023-05-19T08:58:04.816Z,18.64
2023-05-19T09:00:32.668Z,19.41
2023-05-19T09:03:16.907Z,18.83
2023-05-19T09:05:46.539Z,18.50
2023-05-19T09:08:13.772Z,18.48
2023-05-19T09:10:40.336Z,18.74
2023-05-19T09:13:06.926Z,18.96
2023-05-19T09:15:36.814Z,18.49
2023-05-19T09:18:12.347Z,18.95
2023-05-19T09:20:46.334Z,18.14
2023-05-19T09:23:17.578Z,17.88
2023-05-19T09:25:49.203Z,18.96
2023-05-19T09:28:26.717Z,19.67
2023-05-19T09:31:11.508Z,19.93
2023-05-19T09:33:39.575Z,20.52
2023-05-19T09:36:08.388Z,21.12
2023-05-19T09:38:36.463Z,20.88
2023-05-19T09:41:03.956Z,21.50
2023-05-19T09:43:31.817Z,21.85
2023-05-19T09:46:06.686Z,21.73
2023-05-19T09:48:34.747Z,21.65
2023-05-19T09:51:02.431Z,22.25
2023-05-19T09:53:32.634Z,21.49
2023-05-19T09:56:01.625Z,21.98
2023-05-19T09:58:34.592Z,21.79
2023-05-19T10:01:01.661Z,20.84
2023-05-19T10:03:28.500Z,21.51
2023-05-19T10:05:56.285Z,21.72
2023-05-19T10:08:26.492Z,21.99
2023-05-19T10:10:53.097Z,21.89
2023-05-19T10:13:21.357Z,22.32
2023-05-19T10:18:21.092Z,21.98
2023-05-19T10:20:50.011Z,22.74
2023-05-19T10:23:16.723Z,23.08
2023-05-19T10:25:43.843Z,22.83
2023-05-19T10:28:16.768Z,23.60
2023-05-19T10:30:46.413Z,23.26
2023-05-19T10:33:16.715Z,23.40
2023-05-19T10:35:47.267Z,23.06
2023-05-19T10:38:22.761Z,23.60
2023-05-19T10:41:10.539Z,23.36
2023-05-19T10:43:56.020Z,23.66
2023-05-19T10:46:27.510Z,23.66
2023-05-19T10:48:54.579Z,23.69
2023-05-19T10:51:21.376Z,23.64
2023-05-19T10:53:50.005Z,23.40
2023-05-19T10:56:34.703Z,22.40
2023-05-19T10:59:02.286Z,23.03
2023-05-19T11:01:34.015Z,22.79
2023-05-19T11:04:12.547Z,22.80
2023-05-19T11:06:40.416Z,23.03
2023-05-19T11:09:12.485Z,23.57
2023-05-19T11:11:52.929Z,23.00
2023-05-19T11:14:22.973Z,22.46
2023-05-19T11:16:51.799Z,22.84
2023-05-19T11:19:37.022Z,23.12
2023-05-19T11:22:11.748Z,23.91
2023-05-19T11:24:45.871Z,23.45
2023-05-19T11:27:31.966Z,23.45
2023-05-19T11:30:01.898Z,22.38
2023-05-19T11:32:30.682Z,22.39
2023-05-19T11:34:58.187Z,22.34
2023-05-19T11:37:25.312Z,22.48
2023-05-19T11:39:53.335Z,23.20
2023-05-19T11:42:20.331Z,22.62
2023-05-19T11:44:47.104Z,21.89
2023-05-19T11:47:17.293Z,22.88
2023-05-19T11:49:54.945Z,23.51
2023-05-19T11:52:23.198Z,23.49
2023-05-19T11:54:50.018Z,23.87
2023-05-19T11:57:16.944Z,24.20
2023-05-19T11:59:48.290Z,24.07
2023-05-19T12:02:22.684Z,24.41
2023-05-19T12:04:49.631Z,23.69
2023-05-19T12:07:19.899Z,24.37
2023-05-19T12:09:47.252Z,24.47
2023-05-19T12:12:18.709Z,24.27
2023-05-19T12:14:51.016Z,23.22
2023-05-19T12:17:19.891Z,23.82
2023-05-19T12:19:48.084Z,23.48
2023-05-19T12:22:18.134Z,23.40
2023-05-19T12:24:45.461Z,24.23
2023-05-19T12:27:23.622Z,23.59
2023-05-19T12:29:54.223Z,23.80
2023-05-19T12:32:28.621Z,23.47
2023-05-19T12:34:58.819Z,24.16
2023-05-19T12:37:30.171Z,24.73
2023-05-19T12:39:57.470Z,24.01
2023-05-19T12:42:26.801Z,23.66
2023-05-19T12:44:54.682Z,23.67
2023-05-19T12:47:21.217Z,23.43
2023-05-19T12:50:00.349Z,22.87
2023-05-19T12:52:29.708Z,22.71
2023-05-19T12:55:07.663Z,22.74
2023-05-19T12:57:36.110Z,22.60
2023-05-19T13:00:07.179Z,22.76
2023-05-19T13:02:36.170Z,23.46
2023-05-19T13:05:04.685Z,23.46
2023-05-19T13:07:31.195Z,23.68
2023-05-19T13:09:57.770Z,23.64
2023-05-19T13:12:24.654Z,23.64
2023-05-19T13:14:52.889Z,23.42
2023-05-19T13:17:20.638Z,23.76
2023-05-19T13:19:47.186Z,23.77
2023-05-19T13:22:14.049Z,23.52
2023-05-19T13:24:41.054Z,23.83
2023-05-19T13:27:07.983Z,23.88
2023-05-19T13:29:34.510Z,23.54
2023-05-19T13:32:01.661Z,23.26
2023-05-19T13:34:28.234Z,23.63
2023-05-19T13:36:54.916Z,23.84
2023-05-19T13:39:21.451Z,23.69
2023-05-19T13:41:48.040Z,22.72
2023-05-19T13:44:14.591Z,23.12
2023-05-19T13:46:45.632Z,23.32
2023-05-19T13:49:13.381Z,23.61
2023-05-19T13:51:43.577Z,23.41
2023-05-19T13:54:10.429Z,23.53
2023-05-19T13:56:37.064Z,22.51
2023-05-19T13:59:04.119Z,22.78
2023-05-19T14:01:30.848Z,21.63
2023-05-19T14:03:57.721Z,22.03
2023-05-19T14:06:24.479Z,22.31
2023-05-19T14:08:50.935Z,22.75
2023-05-19T14:11:19.636Z,23.25
2023-05-19T14:13:46.853Z,23.44
2023-05-19T14:16:13.384Z,23.04
2023-05-19T14:18:39.927Z,21.51
2023-05-19T14:21:06.414Z,21.37
2023-05-19T14:23:33.018Z,22.31
2023-05-19T14:25:59.694Z,22.37
2023-05-19T14:28:26.524Z,22.48
2023-05-19T14:30:53.112Z,22.39
2023-05-19T14:33:21.131Z,22.70
2023-05-19T14:35:47.928Z,22.39
2023-05-19T14:38:14.488Z,21.40
2023-05-19T14:40:41.666Z,21.98
2023-05-19T14:43:08.302Z,22.24
2023-05-19T14:45:35.349Z,22.08
2023-05-19T14:48:02.113Z,21.70
2023-05-19T14:50:29.420Z,21.16
2023-05-19T14:52:56.787Z,21.39
2023-05-19T14:55:23.322Z,21.78
2023-05-19T14:57:50.236Z,21.28
2023-05-19T15:00:17.776Z,21.21
2023-05-19T15:02:44.565Z,20.72
2023-05-19T15:05:11.808Z,20.87
2023-05-19T15:07:38.323Z,21.36
2023-05-19T15:10:06.873Z,21.59
2023-05-19T15:12:33.406Z,21.81
2023-05-19T15:14:59.959Z,21.77
2023-05-19T15:17:26.586Z,21.70
2023-05-19T15:19:53.385Z,21.36
2023-05-19T15:22:19.886Z,21.04
2023-05-19T15:24:46.400Z,20.92
2023-05-19T15:27:12.911Z,20.60
2023-05-19T15:29:39.448Z,20.86
2023-05-19T15:32:06.649Z,21.05
2023-05-19T15:34:33.169Z,21.07
2023-05-19T15:36:59.747Z,21.18
2023-05-19T15:39:26.341Z,20.83
2023-05-19T15:41:52.900Z,20.54
2023-05-19T15:44:19.374Z,20.61
2023-05-19T15:46:46.020Z,20.94
2023-05-19T15:49:12.973Z,20.92
2023-05-19T15:51:39.885Z,20.95
2023-05-19T15:54:06.462Z,21.13
2023-05-19T15:56:33.059Z,21.01
2023-05-19T15:58:59.652Z,21.06
2023-05-19T16:01:26.418Z,20.54
2023-05-19T16:03:53.461Z,20.88
2023-05-19T16:06:20.183Z,20.39
2023-05-19T16:08:46.660Z,20.23
2023-05-19T16:11:13.287Z,20.36
2023-05-19T16:13:39.805Z,20.37
2023-05-19T16:16:06.727Z,20.15
2023-05-19T16:18:33.284Z,20.10
2023-05-19T16:20:59.934Z,20.27
2023-05-19T16:23:27.410Z,20.16
2023-05-19T16:25:54.843Z,20.37
2023-05-19T16:28:23.247Z,20.46
2023-05-19T16:30:51.311Z,20.14
2023-05-19T16:33:17.820Z,20.12
2023-05-19T16:35:44.349Z,19.78
2023-05-19T16:38:10.838Z,20.10
2023-05-19T16:40:38.122Z,20.17
2023-05-19T16:43:04.641Z,20.04
2023-05-19T16:45:31.123Z,19.77
2023-05-19T16:47:57.759Z,19.91
2023-05-19T16:50:24.354Z,19.84
2023-05-19T16:52:50.871Z,19.84
2023-05-19T16:55:20.133Z,19.96
2023-05-19T16:57:47.161Z,19.85
2023-05-19T17:00:14.531Z,19.88
2023-05-19T17:02:41.325Z,19.78
2023-05-19T17:05:08.377Z,19.82
2023-05-19T17:07:34.916Z,19.86
2023-05-19T17:10:01.375Z,19.87
2023-05-19T17:12:27.882Z,19.81
2023-05-19T17:14:54.506Z,19.83
2023-05-19T17:17:21.252Z,19.79
2023-05-19T17:19:47.694Z,19.58
2023-05-19T17:22:14.159Z,19.54
2023-05-19T17:24:41.231Z,19.73
2023-05-19T17:27:07.944Z,19.55
2023-05-19T17:29:34.880Z,19.57
2023-05-19T17:32:03.714Z,19.58
2023-05-19T17:34:30.730Z,19.56
2023-05-19T17:36:57.299Z,19.33
2023-05-19T17:39:24.754Z,18.90
2023-05-19T17:41:51.245Z,18.86
2023-05-19T17:44:17.754Z,18.86
2023-05-19T17:46:44.397Z,18.63
2023-05-19T17:49:12.975Z,18.63
2023-05-19T17:51:39.728Z,18.71
2023-05-19T17:54:06.694Z,18.64
2023-05-19T17:56:34.385Z,18.61
2023-05-19T17:59:01.354Z,18.55
2023-05-19T18:01:28.155Z,18.50
2023-05-19T18:03:55.006Z,18.39
2023-05-19T18:06:24.119Z,18.25
2023-05-19T18:08:51.818Z,18.26
2023-05-19T18:11:18.635Z,18.13
2023-05-19T18:13:45.172Z,18.20
2023-05-19T18:16:12.402Z,18.05
2023-05-19T18:18:41.162Z,17.87
2023-05-19T18:21:07.701Z,17.80
2023-05-19T18:23:34.189Z,17.86
2023-05-19T18:26:00.743Z,17.81
2023-05-19T18:28:27.329Z,17.69
2023-05-19T18:31:01.235Z,17.68
2023-05-19T18:33:30.115Z,17.64
2023-05-19T18:35:58.385Z,17.63
2023-05-19T18:38:24.936Z,17.50
2023-05-19T18:40:52.028Z,17.42
2023-05-19T18:43:19.239Z,17.43
2023-05-19T18:45:48.621Z,17.28
2023-05-19T18:48:15.658Z,17.18
2023-05-19T18:50:44.052Z,17.13
2023-05-19T18:53:11.712Z,17.17
2023-05-19T18:55:38.609Z,17.03
2023-05-19T18:58:06.209Z,17.00
2023-05-19T19:00:33.129Z,16.98
2023-05-19T19:02:59.896Z,16.81
2023-05-19T19:05:26.426Z,16.84
2023-05-19T19:07:53.452Z,16.75
2023-05-19T19:10:20.219Z,16.73
2023-05-19T19:12:47.044Z,16.62
2023-05-19T19:15:13.634Z,16.59
2023-05-19T19:17:40.231Z,16.56
2023-05-19T19:20:08.647Z,16.34
2023-05-19T19:22:35.483Z,16.39
2023-05-19T19:25:01.962Z,16.36
2023-05-19T19:27:31.085Z,16.28
2023-05-19T19:29:58.664Z,16.20
2023-05-19T19:32:25.644Z,16.12
2023-05-19T19:34:55.306Z,16.06
2023-05-19T19:37:21.798Z,16.02
2023-05-19T19:39:48.326Z,15.88
2023-05-19T19:42:14.837Z,15.98
2023-05-19T19:44:41.321Z,15.85
2023-05-19T19:47:07.949Z,15.79
2023-05-19T19:49:34.532Z,15.77
2023-05-19T19:52:01.189Z,15.73
2023-05-19T19:54:27.698Z,15.72
2023-05-19T19:56:54.454Z,15.56
2023-05-19T19:59:21.003Z,15.60
2023-05-19T20:01:47.485Z,15.56
2023-05-19T20:04:14.051Z,15.48
2023-05-19T20:06:40.866Z,15.46
2023-05-19T20:09:07.676Z,15.38
2023-05-19T20:11:34.382Z,15.35
2023-05-19T20:14:00.914Z,15.25
2023-05-19T20:16:27.564Z,15.26
2023-05-19T20:18:54.534Z,15.26
2023-05-19T20:21:21.047Z,15.22
2023-05-19T20:23:48.269Z,15.24
2023-05-19T20:26:14.900Z,15.14
2023-05-19T20:28:41.630Z,15.03
2023-05-19T20:31:08.677Z,15.01
2023-05-19T20:33:35.325Z,14.97
2023-05-19T20:36:01.906Z,14.93
2023-05-19T20:38:28.348Z,14.86
2023-05-19T20:40:54.886Z,14.85
2023-05-19T20:43:21.640Z,14.71
2023-05-19T20:45:48.311Z,14.69
2023-05-19T20:48:15.878Z,14.73
2023-05-19T20:50:42.586Z,14.67
2023-05-19T20:53:09.103Z,14.63
2023-05-19T20:55:38.558Z,14.58
2023-05-19T20:58:05.457Z,14.52
2023-05-19T21:00:32.514Z,14.46
2023-05-19T21:02:59.424Z,14.44
2023-05-19T21:05:26.185Z,14.48
2023-05-19T21:07:52.677Z,14.27
2023-05-19T21:10:19.199Z,14.39
2023-05-19T21:12:46.347Z,14.41
2023-05-19T21:15:13.548Z,14.28
2023-05-19T21:17:40.392Z,14.26
2023-05-19T21:20:07.668Z,14.29
2023-05-19T21:22:35.679Z,14.24
2023-05-19T21:25:02.203Z,14.12
2023-05-19T21:27:28.700Z,14.17
2023-05-19T21:29:55.507Z,14.08
2023-05-19T21:32:22.108Z,14.17
2023-05-19T21:34:48.842Z,13.96
2023-05-19T21:37:17.292Z,13.97
2023-05-19T21:39:44.426Z,14.03
2023-05-19T21:42:10.937Z,13.97
2023-05-19T21:44:37.505Z,13.96
2023-05-19T21:47:04.050Z,13.75
2023-05-19T21:49:31.225Z,13.78
2023-05-19T21:51:57.915Z,13.79
2023-05-19T21:54:24.489Z,13.87
2023-05-19T21:56:51.018Z,13.88
2023-05-19T21:59:17.551Z,13.87
2023-05-19T22:01:44.202Z,13.83
2023-05-19T22:04:11.371Z,13.66
2023-05-19T22:06:37.960Z,13.63
2023-05-19T22:09:04.543Z,13.79
2023-05-19T22:11:31.091Z,13.71
2023-05-19T22:13:57.593Z,13.77
2023-05-19T22:16:24.149Z,13.73
2023-05-19T22:18:50.736Z,13.83
2023-05-19T22:21:17.332Z,13.77
2023-05-19T22:23:44.027Z,13.76
2023-05-19T22:26:10.624Z,13.61
2023-05-19T22:28:37.203Z,13.61
2023-05-19T22:31:03.921Z,13.61
2023-05-19T22:33:30.520Z,13.61
2023-05-19T22:35:57.048Z,13.52
2023-05-19T22:38:23.522Z,13.52
2023-05-19T22:40:50.016Z,13.51
2023-05-19T22:43:16.504Z,13.51
2023-05-19T22:45:43.078Z,13.59
2023-05-19T22:48:09.591Z,13.51
2023-05-19T22:50:36.360Z,13.51
2023-05-19T22:53:02.954Z,13.51
2023-05-19T22:55:29.412Z,13.49
2023-05-19T22:57:56.004Z,13.42
2023-05-19T23:00:22.682Z,13.45
2023-05-19T23:02:49.495Z,13.29
2023-05-19T23:05:16.315Z,13.44
2023-05-19T23:07:42.843Z,13.37
2023-05-19T23:10:09.719Z,13.47
2023-05-19T23:12:36.299Z,13.38
2023-05-19T23:15:03.607Z,13.34
2023-05-19T23:17:30.234Z,13.28
2023-05-19T23:19:56.889Z,13.18
2023-05-19T23:22:23.383Z,13.20
2023-05-19T23:24:49.862Z,13.26
2023-05-19T23:27:16.367Z,13.25
2023-05-19T23:29:47.133Z,13.23
2023-05-19T23:32:13.655Z,13.05
2023-05-19T23:34:40.398Z,13.20
2023-05-19T23:37:07.080Z,13.07
2023-05-19T23:39:33.630Z,13.00
2023-05-19T23:42:00.206Z,13.13
2023-05-19T23:44:27.328Z,13.09
2023-05-19T23:46:54.162Z,13.03
2023-05-19T23:49:20.888Z,12.97
2023-05-19T23:51:47.420Z,13.02
2023-05-19T23:54:13.900Z,12.99
2023-05-19T23:56:40.755Z,12.82
2023-05-19T23:59:07.277Z,12.96
